sensor_id;sensor_type;location;lat;lon;timestamp;temperature;humidity
74488;DHT22;63019;51.080;13.642;2023-01-30T00:00:49;-0.50;99.90
74488;DHT22;63019;51.080;13.642;2023-01-30T00:01:51;-0.60;99.90
74488;DHT22;63019;51.080;13.642;2023-01-30T00:02:53;-0.60;99.90
74488;DHT22;63019;51.080;13.642;2023-01-30T00:03:55;-0.50;99.90
74488;DHT22;63019;51.080;13.642;2023-01-30T00:04:57;-0.60;99.90
74488;DHT22;63019;51.080;13.642;2023-01-30T00:05:59;-0.60;99.90
74488;DHT22;63019;51.080;13.642;2023-01-30T00:07:00;-0.60;99.90
74488;DHT22;63019;51.080;13.642;2023-01-30T00:08:02;-0.60;99.90
74488;DHT22;63019;51.080;13.642;2023-01-30T00:09:04;-0.60;99.90
74488;DHT22;63019;51.080;13.642;2023-01-30T00:10:06;-0.60;99.90
74488;DHT22;63019;51.080;13.642;2023-01-30T00:11:11;-0.60;99.90
74488;DHT22;63019;51.080;13.642;2023-01-30T00:12:13;-0.50;99.90
74488;DHT22;63019;51.080;13.642;2023-01-30T00:13:16;-0.60;99.90
74488;DHT22;63019;51.080;13.642;2023-01-30T00:14:17;-0.60;99.90
74488;DHT22;63019;51.080;13.642;2023-01-30T00:15:19;-0.60;99.90
74488;DHT22;63019;51.080;13.642;2023-01-30T00:16:21;-0.60;99.90
74488;DHT22;63019;51.080;13.642;2023-01-30T00:17:23;-0.50;99.90
74488;DHT22;63019;51.080;13.642;2023-01-30T00:18:24;-0.50;99.90
74488;DHT22;63019;51.080;13.642;2023-01-30T00:19:26;-0.50;99.90
74488;DHT22;63019;51.080;13.642;2023-01-30T00:20:28;-0.50;99.90
74488;DHT22;63019;51.080;13.642;2023-01-30T00:21:30;-0.50;99.90
74488;DHT22;63019;51.080;13.642;2023-01-30T00:22:32;-0.50;99.90
74488;DHT22;63019;51.080;13.642;2023-01-30T00:23:34;-0.50;99.90
74488;DHT22;63019;51.080;13.642;2023-01-30T00:24:36;-0.40;99.90
74488;DHT22;63019;51.080;13.642;2023-01-30T00:25:39;-0.50;99.90
74488;DHT22;63019;51.080;13.642;2023-01-30T00:26:41;-0.40;99.90
74488;DHT22;63019;51.080;13.642;2023-01-30T00:27:42;-0.50;99.90
74488;DHT22;63019;51.080;13.642;2023-01-30T00:28:44;-0.50;99.90
74488;DHT22;63019;51.080;13.642;2023-01-30T00:29:46;-0.50;99.90
74488;DHT22;63019;51.080;13.642;2023-01-30T00:31:02;-0.50;99.90
74488;DHT22;63019;51.080;13.642;2023-01-30T00:32:04;-0.50;99.90
74488;DHT22;63019;51.080;13.642;2023-01-30T00:33:06;-0.50;99.90
74488;DHT22;63019;51.080;13.642;2023-01-30T00:34:08;-0.40;99.90
74488;DHT22;63019;51.080;13.642;2023-01-30T00:35:09;-0.40;99.90
74488;DHT22;63019;51.080;13.642;2023-01-30T00:36:11;-0.40;99.90
74488;DHT22;63019;51.080;13.642;2023-01-30T00:37:13;-0.50;99.90
74488;DHT22;63019;51.080;13.642;2023-01-30T00:38:15;-0.50;99.90
74488;DHT22;63019;51.080;13.642;2023-01-30T00:39:17;-0.40;99.90
74488;DHT22;63019;51.080;13.642;2023-01-30T00:40:19;-0.40;99.90
74488;DHT22;63019;51.080;13.642;2023-01-30T00:41:21;-0.40;99.90
74488;DHT22;63019;51.080;13.642;2023-01-30T00:42:23;-0.40;99.90
74488;DHT22;63019;51.080;13.642;2023-01-30T00:43:43;-0.40;99.90
74488;DHT22;63019;51.080;13.642;2023-01-30T00:45:04;-0.40;99.90
74488;DHT22;63019;51.080;13.642;2023-01-30T00:46:26;-0.40;99.90
74488;DHT22;63019;51.080;13.642;2023-01-30T00:47:48;-0.40;99.90
74488;DHT22;63019;51.080;13.642;2023-01-30T00:48:50;-0.40;99.90
74488;DHT22;63019;51.080;13.642;2023-01-30T00:49:52;-0.30;99.90
74488;DHT22;63019;51.080;13.642;2023-01-30T00:50:54;-0.30;99.90
74488;DHT22;63019;51.080;13.642;2023-01-30T00:51:56;-0.40;99.90
74488;DHT22;63019;51.080;13.642;2023-01-30T00:52:58;-0.30;99.90
74488;DHT22;63019;51.080;13.642;2023-01-30T00:54:00;-0.30;99.90
74488;DHT22;63019;51.080;13.642;2023-01-30T00:55:02;-0.30;99.90
74488;DHT22;63019;51.080;13.642;2023-01-30T00:56:04;-0.30;99.90
74488;DHT22;63019;51.080;13.642;2023-01-30T00:57:06;-0.30;99.90
74488;DHT22;63019;51.080;13.642;2023-01-30T00:58:08;-0.30;99.90
74488;DHT22;63019;51.080;13.642;2023-01-30T00:59:10;-0.30;99.90
74488;DHT22;63019;51.080;13.642;2023-01-30T01:00:12;-0.30;99.90
74488;DHT22;63019;51.080;13.642;2023-01-30T01:01:14;-0.30;99.90
74488;DHT22;63019;51.080;13.642;2023-01-30T01:02:16;-0.30;99.90
74488;DHT22;63019;51.080;13.642;2023-01-30T01:03:18;-0.30;99.90
74488;DHT22;63019;51.080;13.642;2023-01-30T01:04:20;-0.30;99.90
74488;DHT22;63019;51.080;13.642;2023-01-30T01:05:22;-0.30;99.90
74488;DHT22;63019;51.080;13.642;2023-01-30T01:06:24;-0.30;99.90
74488;DHT22;63019;51.080;13.642;2023-01-30T01:07:26;-0.30;99.90
74488;DHT22;63019;51.080;13.642;2023-01-30T01:08:27;-0.30;99.90
74488;DHT22;63019;51.080;13.642;2023-01-30T01:09:29;-0.30;99.90
74488;DHT22;63019;51.080;13.642;2023-01-30T01:10:32;-0.30;99.90
74488;DHT22;63019;51.080;13.642;2023-01-30T01:11:34;-0.30;99.90
74488;DHT22;63019;51.080;13.642;2023-01-30T01:12:36;-0.30;99.90
74488;DHT22;63019;51.080;13.642;2023-01-30T01:13:37;-0.20;99.90
74488;DHT22;63019;51.080;13.642;2023-01-30T01:14:39;-0.20;99.90
74488;DHT22;63019;51.080;13.642;2023-01-30T01:15:42;-0.20;99.90
74488;DHT22;63019;51.080;13.642;2023-01-30T01:16:43;-0.20;99.90
74488;DHT22;63019;51.080;13.642;2023-01-30T01:17:46;-0.20;99.90
74488;DHT22;63019;51.080;13.642;2023-01-30T01:18:48;-0.20;99.90
74488;DHT22;63019;51.080;13.642;2023-01-30T01:19:49;-0.20;99.90
74488;DHT22;63019;51.080;13.642;2023-01-30T01:20:51;-0.30;99.90
74488;DHT22;63019;51.080;13.642;2023-01-30T01:21:53;-0.20;99.90
74488;DHT22;63019;51.080;13.642;2023-01-30T01:22:55;-0.30;99.90
74488;DHT22;63019;51.080;13.642;2023-01-30T01:23:58;-0.30;99.90
74488;DHT22;63019;51.080;13.642;2023-01-30T01:25:01;-0.30;99.90
74488;DHT22;63019;51.080;13.642;2023-01-30T01:26:03;-0.30;99.90
74488;DHT22;63019;51.080;13.642;2023-01-30T01:27:05;-0.30;99.90
74488;DHT22;63019;51.080;13.642;2023-01-30T01:28:07;-0.30;99.90
74488;DHT22;63019;51.080;13.642;2023-01-30T01:29:14;-0.30;99.90
74488;DHT22;63019;51.080;13.642;2023-01-30T01:30:16;-0.30;99.90
74488;DHT22;63019;51.080;13.642;2023-01-30T01:31:18;-0.30;99.90
74488;DHT22;63019;51.080;13.642;2023-01-30T01:32:21;-0.30;99.90
74488;DHT22;63019;51.080;13.642;2023-01-30T01:33:27;-0.30;99.90
74488;DHT22;63019;51.080;13.642;2023-01-30T01:34:29;-0.30;99.90
74488;DHT22;63019;51.080;13.642;2023-01-30T01:35:31;-0.30;99.90
74488;DHT22;63019;51.080;13.642;2023-01-30T01:36:32;-0.30;99.90
74488;DHT22;63019;51.080;13.642;2023-01-30T01:37:54;-0.30;99.90
74488;DHT22;63019;51.080;13.642;2023-01-30T01:38:56;-0.30;99.90
74488;DHT22;63019;51.080;13.642;2023-01-30T01:39:58;-0.30;99.90
74488;DHT22;63019;51.080;13.642;2023-01-30T01:41:18;-0.20;99.90
74488;DHT22;63019;51.080;13.642;2023-01-30T01:42:22;-0.30;99.90
74488;DHT22;63019;51.080;13.642;2023-01-30T01:43:24;-0.20;99.90
74488;DHT22;63019;51.080;13.642;2023-01-30T01:44:26;-0.30;99.90
74488;DHT22;63019;51.080;13.642;2023-01-30T01:45:28;-0.20;99.90
74488;DHT22;63019;51.080;13.642;2023-01-30T01:47:35;-0.20;99.90
74488;DHT22;63019;51.080;13.642;2023-01-30T01:48:45;-0.20;99.90
74488;DHT22;63019;51.080;13.642;2023-01-30T01:49:48;-0.20;99.90
74488;DHT22;63019;51.080;13.642;2023-01-30T01:51:12;-0.20;99.90
74488;DHT22;63019;51.080;13.642;2023-01-30T01:52:16;-0.20;99.90
74488;DHT22;63019;51.080;13.642;2023-01-30T01:53:20;-0.20;99.90
74488;DHT22;63019;51.080;13.642;2023-01-30T01:55:34;-0.20;99.90
74488;DHT22;63019;51.080;13.642;2023-01-30T01:56:39;-0.20;99.90
74488;DHT22;63019;51.080;13.642;2023-01-30T01:57:56;-0.20;99.90
74488;DHT22;63019;51.080;13.642;2023-01-30T01:59:04;-0.20;99.90
74488;DHT22;63019;51.080;13.642;2023-01-30T02:00:17;-0.20;99.90
74488;DHT22;63019;51.080;13.642;2023-01-30T02:01:20;-0.20;99.90
74488;DHT22;63019;51.080;13.642;2023-01-30T02:02:22;-0.10;99.90
74488;DHT22;63019;51.080;13.642;2023-01-30T02:03:28;-0.10;99.90
74488;DHT22;63019;51.080;13.642;2023-01-30T02:04:31;-0.10;99.90
74488;DHT22;63019;51.080;13.642;2023-01-30T02:05:54;-0.10;99.90
74488;DHT22;63019;51.080;13.642;2023-01-30T02:06:58;-0.10;99.90
74488;DHT22;63019;51.080;13.642;2023-01-30T02:08:03;-0.10;99.90
74488;DHT22;63019;51.080;13.642;2023-01-30T02:09:07;-0.10;99.90
74488;DHT22;63019;51.080;13.642;2023-01-30T02:10:15;-0.10;99.90
74488;DHT22;63019;51.080;13.642;2023-01-30T02:12:28;-0.10;99.90
74488;DHT22;63019;51.080;13.642;2023-01-30T02:13:30;-0.10;99.90
74488;DHT22;63019;51.080;13.642;2023-01-30T02:14:33;-0.10;99.90
74488;DHT22;63019;51.080;13.642;2023-01-30T02:15:35;-0.10;99.90
74488;DHT22;63019;51.080;13.642;2023-01-30T02:16:37;-0.10;99.90
74488;DHT22;63019;51.080;13.642;2023-01-30T02:17:39;-0.10;99.90
74488;DHT22;63019;51.080;13.642;2023-01-30T02:18:42;-0.10;99.90
74488;DHT22;63019;51.080;13.642;2023-01-30T02:19:49;-0.10;99.90
74488;DHT22;63019;51.080;13.642;2023-01-30T02:22:15;-0.10;99.90
74488;DHT22;63019;51.080;13.642;2023-01-30T02:26:46;0.00;99.90
74488;DHT22;63019;51.080;13.642;2023-01-30T02:29:29;0.10;99.90
74488;DHT22;63019;51.080;13.642;2023-01-30T02:35:13;0.10;99.90
74488;DHT22;63019;51.080;13.642;2023-01-30T02:36:28;0.10;99.90
74488;DHT22;63019;51.080;13.642;2023-01-30T02:39:14;0.20;99.90
74488;DHT22;63019;51.080;13.642;2023-01-30T02:42:46;0.30;99.90
74488;DHT22;63019;51.080;13.642;2023-01-30T02:44:02;0.40;99.90
74488;DHT22;63019;51.080;13.642;2023-01-30T02:45:15;0.40;99.90
74488;DHT22;63019;51.080;13.642;2023-01-30T02:47:38;0.40;99.90
74488;DHT22;63019;51.080;13.642;2023-01-30T02:48:47;0.40;99.90
74488;DHT22;63019;51.080;13.642;2023-01-30T02:49:55;0.40;99.90
74488;DHT22;63019;51.080;13.642;2023-01-30T02:51:06;0.40;99.90
74488;DHT22;63019;51.080;13.642;2023-01-30T02:52:11;0.50;99.90
74488;DHT22;63019;51.080;13.642;2023-01-30T02:53:14;0.50;99.90
74488;DHT22;63019;51.080;13.642;2023-01-30T02:54:16;0.50;99.90
74488;DHT22;63019;51.080;13.642;2023-01-30T02:55:21;0.50;99.90
74488;DHT22;63019;51.080;13.642;2023-01-30T02:56:23;0.50;99.90
74488;DHT22;63019;51.080;13.642;2023-01-30T02:57:25;0.60;99.90
74488;DHT22;63019;51.080;13.642;2023-01-30T02:58:31;0.60;99.90
74488;DHT22;63019;51.080;13.642;2023-01-30T02:59:41;0.60;99.90
74488;DHT22;63019;51.080;13.642;2023-01-30T03:01:09;0.60;99.90
74488;DHT22;63019;51.080;13.642;2023-01-30T03:05:21;0.70;99.90
74488;DHT22;63019;51.080;13.642;2023-01-30T03:06:42;0.70;99.90
74488;DHT22;63019;51.080;13.642;2023-01-30T03:07:54;0.70;99.90
74488;DHT22;63019;51.080;13.642;2023-01-30T03:09:01;0.80;99.90
74488;DHT22;63019;51.080;13.642;2023-01-30T03:11:13;0.80;99.90
74488;DHT22;63019;51.080;13.642;2023-01-30T03:14:13;0.90;99.90
74488;DHT22;63019;51.080;13.642;2023-01-30T03:16:36;0.90;99.90
74488;DHT22;63019;51.080;13.642;2023-01-30T03:17:41;1.00;99.90
74488;DHT22;63019;51.080;13.642;2023-01-30T03:18:45;1.00;99.90
74488;DHT22;63019;51.080;13.642;2023-01-30T03:19:47;1.00;99.90
74488;DHT22;63019;51.080;13.642;2023-01-30T03:20:49;1.00;99.90
74488;DHT22;63019;51.080;13.642;2023-01-30T03:21:51;1.00;99.90
74488;DHT22;63019;51.080;13.642;2023-01-30T03:22:53;1.00;99.90
74488;DHT22;63019;51.080;13.642;2023-01-30T03:23:56;1.10;99.90
74488;DHT22;63019;51.080;13.642;2023-01-30T03:24:58;1.10;99.90
74488;DHT22;63019;51.080;13.642;2023-01-30T03:26:05;1.10;99.90
74488;DHT22;63019;51.080;13.642;2023-01-30T03:27:11;1.10;99.90
74488;DHT22;63019;51.080;13.642;2023-01-30T03:28:15;1.20;99.90
74488;DHT22;63019;51.080;13.642;2023-01-30T03:29:18;1.20;99.90
74488;DHT22;63019;51.080;13.642;2023-01-30T03:30:22;1.20;99.90
74488;DHT22;63019;51.080;13.642;2023-01-30T03:31:25;1.20;99.90
74488;DHT22;63019;51.080;13.642;2023-01-30T03:32:27;1.20;99.90
74488;DHT22;63019;51.080;13.642;2023-01-30T03:33:29;1.30;99.90
74488;DHT22;63019;51.080;13.642;2023-01-30T03:34:30;1.30;99.90
74488;DHT22;63019;51.080;13.642;2023-01-30T03:35:32;1.20;99.90
74488;DHT22;63019;51.080;13.642;2023-01-30T03:36:34;1.30;99.90
74488;DHT22;63019;51.080;13.642;2023-01-30T03:37:36;1.30;99.90
74488;DHT22;63019;51.080;13.642;2023-01-30T03:38:38;1.40;99.90
74488;DHT22;63019;51.080;13.642;2023-01-30T03:39:40;1.40;99.90
74488;DHT22;63019;51.080;13.642;2023-01-30T03:40:42;1.40;99.90
74488;DHT22;63019;51.080;13.642;2023-01-30T03:41:45;1.40;99.90
74488;DHT22;63019;51.080;13.642;2023-01-30T03:42:46;1.40;99.90
74488;DHT22;63019;51.080;13.642;2023-01-30T03:43:48;1.40;99.90
74488;DHT22;63019;51.080;13.642;2023-01-30T03:44:50;1.40;99.90
74488;DHT22;63019;51.080;13.642;2023-01-30T03:45:52;1.40;99.90
74488;DHT22;63019;51.080;13.642;2023-01-30T03:46:53;1.40;99.90
74488;DHT22;63019;51.080;13.642;2023-01-30T03:47:55;1.40;99.90
74488;DHT22;63019;51.080;13.642;2023-01-30T03:48:57;1.40;99.90
74488;DHT22;63019;51.080;13.642;2023-01-30T03:49:59;1.40;99.90
74488;DHT22;63019;51.080;13.642;2023-01-30T03:51:01;1.40;99.90
74488;DHT22;63019;51.080;13.642;2023-01-30T03:52:02;1.40;99.90
74488;DHT22;63019;51.080;13.642;2023-01-30T03:53:04;1.40;99.90
74488;DHT22;63019;51.080;13.642;2023-01-30T03:54:06;1.40;99.90
74488;DHT22;63019;51.080;13.642;2023-01-30T03:55:09;1.40;99.90
74488;DHT22;63019;51.080;13.642;2023-01-30T03:56:11;1.40;99.90
74488;DHT22;63019;51.080;13.642;2023-01-30T03:57:13;1.40;99.90
74488;DHT22;63019;51.080;13.642;2023-01-30T03:58:14;1.40;99.90
74488;DHT22;63019;51.080;13.642;2023-01-30T03:59:16;1.40;99.90
74488;DHT22;63019;51.080;13.642;2023-01-30T04:00:18;1.40;99.90
74488;DHT22;63019;51.080;13.642;2023-01-30T04:01:20;1.40;99.90
74488;DHT22;63019;51.080;13.642;2023-01-30T04:02:22;1.40;99.90
74488;DHT22;63019;51.080;13.642;2023-01-30T04:03:24;1.40;99.90
74488;DHT22;63019;51.080;13.642;2023-01-30T04:04:26;1.40;99.90
74488;DHT22;63019;51.080;13.642;2023-01-30T04:05:28;1.50;99.90
74488;DHT22;63019;51.080;13.642;2023-01-30T04:06:29;1.50;99.90
74488;DHT22;63019;51.080;13.642;2023-01-30T04:07:31;1.40;99.90
74488;DHT22;63019;51.080;13.642;2023-01-30T04:08:33;1.50;99.90
74488;DHT22;63019;51.080;13.642;2023-01-30T04:09:35;1.40;99.90
74488;DHT22;63019;51.080;13.642;2023-01-30T04:10:37;1.40;99.90
74488;DHT22;63019;51.080;13.642;2023-01-30T04:11:38;1.50;99.90
74488;DHT22;63019;51.080;13.642;2023-01-30T04:12:43;1.50;99.90
74488;DHT22;63019;51.080;13.642;2023-01-30T04:13:45;1.50;99.90
74488;DHT22;63019;51.080;13.642;2023-01-30T04:14:46;1.40;99.90
74488;DHT22;63019;51.080;13.642;2023-01-30T04:15:48;1.50;99.90
74488;DHT22;63019;51.080;13.642;2023-01-30T04:16:50;1.50;99.90
74488;DHT22;63019;51.080;13.642;2023-01-30T04:17:52;1.40;99.90
74488;DHT22;63019;51.080;13.642;2023-01-30T04:18:54;1.40;99.90
74488;DHT22;63019;51.080;13.642;2023-01-30T04:19:55;1.40;99.90
74488;DHT22;63019;51.080;13.642;2023-01-30T04:20:57;1.40;99.90
74488;DHT22;63019;51.080;13.642;2023-01-30T04:21:59;1.40;99.90
74488;DHT22;63019;51.080;13.642;2023-01-30T04:23:01;1.50;99.90
74488;DHT22;63019;51.080;13.642;2023-01-30T04:24:03;1.50;99.90
74488;DHT22;63019;51.080;13.642;2023-01-30T04:25:05;1.50;99.90
74488;DHT22;63019;51.080;13.642;2023-01-30T04:26:07;1.50;99.90
74488;DHT22;63019;51.080;13.642;2023-01-30T04:27:10;1.60;99.90
74488;DHT22;63019;51.080;13.642;2023-01-30T04:28:11;1.50;99.90
74488;DHT22;63019;51.080;13.642;2023-01-30T04:29:13;1.50;99.90
74488;DHT22;63019;51.080;13.642;2023-01-30T04:30:15;1.60;99.90
74488;DHT22;63019;51.080;13.642;2023-01-30T04:31:17;1.60;99.90
74488;DHT22;63019;51.080;13.642;2023-01-30T04:32:19;1.60;99.90
74488;DHT22;63019;51.080;13.642;2023-01-30T04:33:21;1.60;99.90
74488;DHT22;63019;51.080;13.642;2023-01-30T04:34:23;1.60;99.90
74488;DHT22;63019;51.080;13.642;2023-01-30T04:35:24;1.70;99.90
74488;DHT22;63019;51.080;13.642;2023-01-30T04:36:26;1.70;99.90
74488;DHT22;63019;51.080;13.642;2023-01-30T04:37:29;1.70;99.90
74488;DHT22;63019;51.080;13.642;2023-01-30T04:38:32;1.80;99.90
74488;DHT22;63019;51.080;13.642;2023-01-30T04:39:34;1.80;99.90
74488;DHT22;63019;51.080;13.642;2023-01-30T04:40:36;1.80;99.90
74488;DHT22;63019;51.080;13.642;2023-01-30T04:41:37;1.80;99.90
74488;DHT22;63019;51.080;13.642;2023-01-30T04:42:39;1.90;99.90
74488;DHT22;63019;51.080;13.642;2023-01-30T04:43:41;1.80;99.90
74488;DHT22;63019;51.080;13.642;2023-01-30T04:44:43;1.90;99.90
74488;DHT22;63019;51.080;13.642;2023-01-30T04:45:45;1.90;99.90
74488;DHT22;63019;51.080;13.642;2023-01-30T04:46:47;1.90;99.90
74488;DHT22;63019;51.080;13.642;2023-01-30T04:47:49;1.90;99.90
74488;DHT22;63019;51.080;13.642;2023-01-30T04:48:51;1.90;99.90
74488;DHT22;63019;51.080;13.642;2023-01-30T04:49:52;2.00;99.90
74488;DHT22;63019;51.080;13.642;2023-01-30T04:50:55;2.00;99.90
74488;DHT22;63019;51.080;13.642;2023-01-30T04:51:57;2.00;99.90
74488;DHT22;63019;51.080;13.642;2023-01-30T04:52:59;2.00;99.90
74488;DHT22;63019;51.080;13.642;2023-01-30T04:54:01;2.10;99.90
74488;DHT22;63019;51.080;13.642;2023-01-30T04:55:03;2.10;99.90
74488;DHT22;63019;51.080;13.642;2023-01-30T04:56:05;2.10;99.90
74488;DHT22;63019;51.080;13.642;2023-01-30T04:57:07;2.10;99.90
74488;DHT22;63019;51.080;13.642;2023-01-30T04:58:09;2.10;99.90
74488;DHT22;63019;51.080;13.642;2023-01-30T04:59:11;2.00;99.90
74488;DHT22;63019;51.080;13.642;2023-01-30T05:00:13;2.00;99.90
74488;DHT22;63019;51.080;13.642;2023-01-30T05:01:23;2.00;99.90
74488;DHT22;63019;51.080;13.642;2023-01-30T05:02:25;2.00;99.90
74488;DHT22;63019;51.080;13.642;2023-01-30T05:03:27;2.10;99.90
74488;DHT22;63019;51.080;13.642;2023-01-30T05:04:29;2.00;99.90
74488;DHT22;63019;51.080;13.642;2023-01-30T05:05:31;2.10;99.90
74488;DHT22;63019;51.080;13.642;2023-01-30T05:06:34;2.10;99.90
74488;DHT22;63019;51.080;13.642;2023-01-30T05:07:37;2.10;99.90
74488;DHT22;63019;51.080;13.642;2023-01-30T05:08:38;2.10;99.90
74488;DHT22;63019;51.080;13.642;2023-01-30T05:09:40;2.10;99.90
74488;DHT22;63019;51.080;13.642;2023-01-30T05:10:42;2.20;99.90
74488;DHT22;63019;51.080;13.642;2023-01-30T05:11:44;2.20;99.90
74488;DHT22;63019;51.080;13.642;2023-01-30T05:12:46;2.20;99.90
74488;DHT22;63019;51.080;13.642;2023-01-30T05:13:48;2.30;99.90
74488;DHT22;63019;51.080;13.642;2023-01-30T05:14:50;2.20;99.90
74488;DHT22;63019;51.080;13.642;2023-01-30T05:15:51;2.20;99.90
74488;DHT22;63019;51.080;13.642;2023-01-30T05:16:53;2.30;99.90
74488;DHT22;63019;51.080;13.642;2023-01-30T05:17:55;2.30;99.90
74488;DHT22;63019;51.080;13.642;2023-01-30T05:18:57;2.30;99.90
74488;DHT22;63019;51.080;13.642;2023-01-30T05:19:59;2.30;99.90
74488;DHT22;63019;51.080;13.642;2023-01-30T05:21:09;2.20;99.90
74488;DHT22;63019;51.080;13.642;2023-01-30T05:22:11;2.20;99.90
74488;DHT22;63019;51.080;13.642;2023-01-30T05:23:12;2.20;99.90
74488;DHT22;63019;51.080;13.642;2023-01-30T05:24:15;2.30;99.90
74488;DHT22;63019;51.080;13.642;2023-01-30T05:25:17;2.20;99.90
74488;DHT22;63019;51.080;13.642;2023-01-30T05:26:20;2.20;99.90
74488;DHT22;63019;51.080;13.642;2023-01-30T05:27:22;2.30;99.90
74488;DHT22;63019;51.080;13.642;2023-01-30T05:28:23;2.30;99.90
74488;DHT22;63019;51.080;13.642;2023-01-30T05:29:25;2.30;99.90
74488;DHT22;63019;51.080;13.642;2023-01-30T05:30:27;2.30;99.90
74488;DHT22;63019;51.080;13.642;2023-01-30T05:31:29;2.30;99.90
74488;DHT22;63019;51.080;13.642;2023-01-30T05:32:30;2.30;99.90
74488;DHT22;63019;51.080;13.642;2023-01-30T05:33:32;2.30;99.90
74488;DHT22;63019;51.080;13.642;2023-01-30T05:34:34;2.30;99.90
74488;DHT22;63019;51.080;13.642;2023-01-30T05:35:36;2.30;99.90
74488;DHT22;63019;51.080;13.642;2023-01-30T05:36:38;2.30;99.90
74488;DHT22;63019;51.080;13.642;2023-01-30T05:37:39;2.30;99.90
74488;DHT22;63019;51.080;13.642;2023-01-30T05:38:42;2.30;99.90
74488;DHT22;63019;51.080;13.642;2023-01-30T05:39:44;2.30;99.90
74488;DHT22;63019;51.080;13.642;2023-01-30T05:40:45;2.30;99.90
74488;DHT22;63019;51.080;13.642;2023-01-30T05:41:47;2.30;99.90
74488;DHT22;63019;51.080;13.642;2023-01-30T05:42:49;2.30;99.90
74488;DHT22;63019;51.080;13.642;2023-01-30T05:43:51;2.30;99.90
74488;DHT22;63019;51.080;13.642;2023-01-30T05:44:52;2.30;99.90
74488;DHT22;63019;51.080;13.642;2023-01-30T05:45:55;2.30;99.90
74488;DHT22;63019;51.080;13.642;2023-01-30T05:46:57;2.30;99.90
74488;DHT22;63019;51.080;13.642;2023-01-30T05:47:59;2.30;99.90
74488;DHT22;63019;51.080;13.642;2023-01-30T05:49:02;2.30;99.90
74488;DHT22;63019;51.080;13.642;2023-01-30T05:50:08;2.30;99.90
74488;DHT22;63019;51.080;13.642;2023-01-30T05:51:16;2.40;99.90
74488;DHT22;63019;51.080;13.642;2023-01-30T05:52:18;2.30;99.90
74488;DHT22;63019;51.080;13.642;2023-01-30T05:53:21;2.30;99.90
74488;DHT22;63019;51.080;13.642;2023-01-30T05:54:23;2.30;99.90
74488;DHT22;63019;51.080;13.642;2023-01-30T05:55:25;2.30;99.90
74488;DHT22;63019;51.080;13.642;2023-01-30T05:56:27;2.30;99.90
74488;DHT22;63019;51.080;13.642;2023-01-30T05:57:28;2.30;99.90
74488;DHT22;63019;51.080;13.642;2023-01-30T05:58:31;2.30;99.90
74488;DHT22;63019;51.080;13.642;2023-01-30T05:59:33;2.30;99.90
74488;DHT22;63019;51.080;13.642;2023-01-30T06:00:35;2.40;99.90
74488;DHT22;63019;51.080;13.642;2023-01-30T06:01:37;2.40;99.90
74488;DHT22;63019;51.080;13.642;2023-01-30T06:02:38;2.40;99.90
74488;DHT22;63019;51.080;13.642;2023-01-30T06:03:40;2.40;99.90
74488;DHT22;63019;51.080;13.642;2023-01-30T06:04:42;2.40;99.90
74488;DHT22;63019;51.080;13.642;2023-01-30T06:05:44;2.40;99.90
74488;DHT22;63019;51.080;13.642;2023-01-30T06:06:48;2.50;99.90
74488;DHT22;63019;51.080;13.642;2023-01-30T06:07:51;2.40;99.90
74488;DHT22;63019;51.080;13.642;2023-01-30T06:08:54;2.50;99.90
74488;DHT22;63019;51.080;13.642;2023-01-30T06:09:56;2.50;99.90
74488;DHT22;63019;51.080;13.642;2023-01-30T06:11:02;2.50;99.90
74488;DHT22;63019;51.080;13.642;2023-01-30T06:12:05;2.50;99.90
74488;DHT22;63019;51.080;13.642;2023-01-30T06:13:07;2.50;99.90
74488;DHT22;63019;51.080;13.642;2023-01-30T06:14:11;2.50;99.90
74488;DHT22;63019;51.080;13.642;2023-01-30T06:15:13;2.50;99.90
74488;DHT22;63019;51.080;13.642;2023-01-30T06:16:16;2.50;99.90
74488;DHT22;63019;51.080;13.642;2023-01-30T06:17:18;2.50;99.90
74488;DHT22;63019;51.080;13.642;2023-01-30T06:18:20;2.50;99.90
74488;DHT22;63019;51.080;13.642;2023-01-30T06:19:22;2.50;99.90
74488;DHT22;63019;51.080;13.642;2023-01-30T06:20:24;2.50;99.90
74488;DHT22;63019;51.080;13.642;2023-01-30T06:21:25;2.50;99.90
74488;DHT22;63019;51.080;13.642;2023-01-30T06:22:27;2.50;99.90
74488;DHT22;63019;51.080;13.642;2023-01-30T06:23:29;2.50;99.90
74488;DHT22;63019;51.080;13.642;2023-01-30T06:24:31;2.50;99.90
74488;DHT22;63019;51.080;13.642;2023-01-30T06:25:33;2.50;99.90
74488;DHT22;63019;51.080;13.642;2023-01-30T06:26:35;2.50;99.90
74488;DHT22;63019;51.080;13.642;2023-01-30T06:27:37;2.50;99.90
74488;DHT22;63019;51.080;13.642;2023-01-30T06:28:38;2.50;99.90
74488;DHT22;63019;51.080;13.642;2023-01-30T06:29:40;2.50;99.90
74488;DHT22;63019;51.080;13.642;2023-01-30T06:30:42;2.60;99.90
74488;DHT22;63019;51.080;13.642;2023-01-30T06:31:44;2.60;99.90
74488;DHT22;63019;51.080;13.642;2023-01-30T06:32:49;2.60;99.90
74488;DHT22;63019;51.080;13.642;2023-01-30T06:33:51;2.50;99.90
74488;DHT22;63019;51.080;13.642;2023-01-30T06:34:53;2.50;99.90
74488;DHT22;63019;51.080;13.642;2023-01-30T06:35:55;2.50;99.90
74488;DHT22;63019;51.080;13.642;2023-01-30T06:36:57;2.50;99.90
74488;DHT22;63019;51.080;13.642;2023-01-30T06:37:58;2.50;99.90
74488;DHT22;63019;51.080;13.642;2023-01-30T06:39:00;2.50;99.90
74488;DHT22;63019;51.080;13.642;2023-01-30T06:40:02;2.50;99.90
74488;DHT22;63019;51.080;13.642;2023-01-30T06:41:04;2.50;99.90
74488;DHT22;63019;51.080;13.642;2023-01-30T06:42:06;2.50;99.90
74488;DHT22;63019;51.080;13.642;2023-01-30T06:43:08;2.50;99.90
74488;DHT22;63019;51.080;13.642;2023-01-30T06:44:10;2.50;99.90
74488;DHT22;63019;51.080;13.642;2023-01-30T06:45:17;2.50;99.90
74488;DHT22;63019;51.080;13.642;2023-01-30T06:46:19;2.60;99.90
74488;DHT22;63019;51.080;13.642;2023-01-30T06:47:21;2.60;99.90
74488;DHT22;63019;51.080;13.642;2023-01-30T06:48:23;2.60;99.90
74488;DHT22;63019;51.080;13.642;2023-01-30T06:49:24;2.60;99.90
74488;DHT22;63019;51.080;13.642;2023-01-30T06:50:27;2.60;99.90
74488;DHT22;63019;51.080;13.642;2023-01-30T06:51:29;2.50;99.90
74488;DHT22;63019;51.080;13.642;2023-01-30T06:52:32;2.60;99.90
74488;DHT22;63019;51.080;13.642;2023-01-30T06:53:34;2.50;99.90
74488;DHT22;63019;51.080;13.642;2023-01-30T06:54:36;2.50;99.90
74488;DHT22;63019;51.080;13.642;2023-01-30T06:55:38;2.40;99.90
74488;DHT22;63019;51.080;13.642;2023-01-30T06:56:40;2.40;99.90
74488;DHT22;63019;51.080;13.642;2023-01-30T06:57:42;2.40;99.90
74488;DHT22;63019;51.080;13.642;2023-01-30T06:58:44;2.40;99.90
74488;DHT22;63019;51.080;13.642;2023-01-30T06:59:46;2.40;99.90
74488;DHT22;63019;51.080;13.642;2023-01-30T07:00:48;2.40;99.90
74488;DHT22;63019;51.080;13.642;2023-01-30T07:01:50;2.30;99.90
74488;DHT22;63019;51.080;13.642;2023-01-30T07:02:52;2.30;99.90
74488;DHT22;63019;51.080;13.642;2023-01-30T07:03:53;2.30;99.90
74488;DHT22;63019;51.080;13.642;2023-01-30T07:04:55;2.30;99.90